createdAt,value
2019-02-03T00:00:27.134Z,4.40
2019-02-03T00:02:57.676Z,4.50
2019-02-03T00:05:28.140Z,4.50
2019-02-03T00:07:58.943Z,4.50
2019-02-03T00:10:29.877Z,4.50
2019-02-03T00:13:00.856Z,4.30
2019-02-03T00:15:32.004Z,4.20
2019-02-03T00:18:02.657Z,4.00
2019-02-03T00:20:33.266Z,4.10
2019-02-03T00:23:04.485Z,4.10
2019-02-03T00:25:35.012Z,4.10
2019-02-03T00:28:08.566Z,4.20
2019-02-03T00:30:40.369Z,4.20
2019-02-03T00:33:11.144Z,4.20
2019-02-03T00:35:42.101Z,4.30
2019-02-03T00:38:21.287Z,4.30
2019-02-03T00:40:45.018Z,4.40
2019-02-03T00:43:15.658Z,4.50
2019-02-03T00:45:46.635Z,4.50
2019-02-03T00:48:17.599Z,4.50
2019-02-03T00:50:48.062Z,4.50
2019-02-03T00:53:18.485Z,4.50
2019-02-03T00:55:50.216Z,4.70
2019-02-03T00:58:21.171Z,4.70
2019-02-03T01:00:55.449Z,4.70
2019-02-03T01:03:28.787Z,4.80
2019-02-03T01:05:59.447Z,4.80
2019-02-03T01:08:30.184Z,4.80
2019-02-03T01:11:00.935Z,4.60
2019-02-03T01:13:32.574Z,4.60
2019-02-03T01:16:04.321Z,4.70
2019-02-03T01:18:35.849Z,4.80
2019-02-03T01:21:06.287Z,4.80
2019-02-03T01:23:37.215Z,4.80
2019-02-03T01:26:07.553Z,4.80
2019-02-03T01:28:38.531Z,4.80
2019-02-03T01:31:10.209Z,4.70
2019-02-03T01:33:41.428Z,4.80
2019-02-03T01:36:11.972Z,4.80
2019-02-03T01:38:43.244Z,4.90
2019-02-03T01:41:14.333Z,4.90
2019-02-03T01:43:45.735Z,4.80
2019-02-03T01:46:16.686Z,4.70
2019-02-03T01:48:47.694Z,4.80
2019-02-03T01:51:18.896Z,4.80
2019-02-03T01:53:50.161Z,4.90
2019-02-03T01:56:21.806Z,5.10
2019-02-03T01:58:52.427Z,5.20
2019-02-03T02:01:23.005Z,5.20
2019-02-03T02:03:55.141Z,5.20
2019-02-03T02:06:26.703Z,5.20
2019-02-03T02:08:57.563Z,5.20
2019-02-03T02:11:29.976Z,5.10
2019-02-03T02:14:00.486Z,5.00
2019-02-03T02:16:31.164Z,5.00
2019-02-03T02:19:01.865Z,5.10
2019-02-03T02:21:33.751Z,5.10
2019-02-03T02:24:04.067Z,5.10
2019-02-03T02:26:34.694Z,5.10
2019-02-03T02:29:05.513Z,5.10
2019-02-03T02:31:37.092Z,5.10
2019-02-03T02:34:08.179Z,5.20
2019-02-03T02:36:39.836Z,5.10
2019-02-03T02:39:10.211Z,5.10
2019-02-03T02:41:42.077Z,5.00
2019-02-03T02:44:12.834Z,5.00
2019-02-03T02:46:43.881Z,4.80
2019-02-03T02:49:14.443Z,4.50
2019-02-03T02:51:44.779Z,4.70
2019-02-03T02:54:15.423Z,4.60
2019-02-03T02:56:45.756Z,4.60
2019-02-03T02:59:17.085Z,4.70
2019-02-03T03:01:47.990Z,4.90
2019-02-03T03:04:19.458Z,4.80
2019-02-03T03:06:50.965Z,4.60
2019-02-03T03:09:23.295Z,4.50
2019-02-03T03:11:54.110Z,4.30
2019-02-03T03:14:25.029Z,4.40
2019-02-03T03:16:58.367Z,4.30
2019-02-03T03:19:30.191Z,4.30
2019-02-03T03:22:01.510Z,4.20
2019-02-03T03:24:33.127Z,4.10
2019-02-03T03:27:04.821Z,4.00
2019-02-03T03:29:35.642Z,3.90
2019-02-03T03:32:06.880Z,4.10
2019-02-03T03:34:37.576Z,4.10
2019-02-03T03:37:08.221Z,4.00
2019-02-03T03:39:38.688Z,4.10
2019-02-03T03:42:09.326Z,4.00
2019-02-03T03:44:40.103Z,4.10
2019-02-03T03:47:12.120Z,4.10
2019-02-03T03:49:42.865Z,4.20
2019-02-03T03:52:15.262Z,4.10
2019-02-03T03:54:46.300Z,4.20
2019-02-03T03:57:16.872Z,4.50
2019-02-03T03:59:47.874Z,4.60
2019-02-03T04:02:19.016Z,4.50
2019-02-03T04:04:49.691Z,4.40
2019-02-03T04:07:20.207Z,4.50
2019-02-03T04:09:50.911Z,4.40
2019-02-03T04:12:23.006Z,4.40
2019-02-03T04:14:53.651Z,4.40
2019-02-03T04:17:24.292Z,4.30
2019-02-03T04:19:54.834Z,4.20
2019-02-03T04:22:25.507Z,4.10
2019-02-03T04:24:56.137Z,4.10
2019-02-03T04:27:26.883Z,4.10
2019-02-03T04:29:57.257Z,4.30
2019-02-03T04:32:28.042Z,4.30
2019-02-03T04:34:59.526Z,4.30
2019-02-03T04:37:30.426Z,4.20
2019-02-03T04:40:01.683Z,4.00
2019-02-03T04:42:34.354Z,4.00
2019-02-03T04:45:05.830Z,4.00
2019-02-03T04:47:36.647Z,4.00
2019-02-03T04:50:10.358Z,3.90
2019-02-03T04:52:40.857Z,4.00
2019-02-03T04:55:12.944Z,3.90
2019-02-03T04:57:44.393Z,3.70
2019-02-03T05:00:18.124Z,3.50
2019-02-03T05:02:48.780Z,3.50
2019-02-03T05:05:20.135Z,3.40
2019-02-03T05:07:51.067Z,3.50
2019-02-03T05:10:21.901Z,3.50
2019-02-03T05:12:53.095Z,3.50
2019-02-03T05:15:25.659Z,3.40
2019-02-03T05:17:56.571Z,3.40
2019-02-03T05:20:28.545Z,3.40
2019-02-03T05:22:59.578Z,3.30
2019-02-03T05:25:30.364Z,3.30
2019-02-03T05:28:01.404Z,3.30
2019-02-03T05:30:34.616Z,3.30
2019-02-03T05:33:06.374Z,3.40
2019-02-03T05:35:36.315Z,3.30
2019-02-03T05:38:06.487Z,3.30
2019-02-03T05:40:36.608Z,3.40
2019-02-03T05:43:06.916Z,3.50
2019-02-03T05:45:37.450Z,3.60
2019-02-03T05:48:07.748Z,3.50
2019-02-03T05:50:37.890Z,3.50
2019-02-03T05:53:08.070Z,3.30
2019-02-03T05:55:38.212Z,3.20
2019-02-03T05:58:08.693Z,3.10
2019-02-03T06:00:40.845Z,3.20
2019-02-03T06:03:11.171Z,3.10
2019-02-03T06:05:41.768Z,3.00
2019-02-03T06:08:11.730Z,3.10
2019-02-03T06:10:42.267Z,3.00
2019-02-03T06:13:12.467Z,3.00
2019-02-03T06:15:42.891Z,3.00
2019-02-03T06:18:13.163Z,3.10
2019-02-03T06:20:43.304Z,3.10
2019-02-03T06:23:14.505Z,3.00
2019-02-03T06:25:44.619Z,3.00
2019-02-03T06:28:14.662Z,3.10
2019-02-03T06:31:14.302Z,3.10
2019-02-03T06:33:52.620Z,3.10
2019-02-03T06:36:23.379Z,3.10
2019-02-03T06:38:54.597Z,3.00
2019-02-03T06:41:26.641Z,3.00
2019-02-03T06:43:57.474Z,2.90
2019-02-03T06:46:56.290Z,2.90
2019-02-03T06:49:30.301Z,2.90
2019-02-03T06:52:00.310Z,2.90
2019-02-03T06:54:30.797Z,2.80
2019-02-03T06:57:01.310Z,2.70
2019-02-03T06:59:31.476Z,2.90
2019-02-03T07:02:02.287Z,3.00
2019-02-03T07:04:32.297Z,3.20
2019-02-03T07:07:02.411Z,3.20
2019-02-03T07:09:32.764Z,3.10
2019-02-03T07:12:02.932Z,3.10
2019-02-03T07:14:32.877Z,3.10
2019-02-03T07:17:03.009Z,3.30
2019-02-03T07:19:33.110Z,3.50
2019-02-03T07:22:03.246Z,3.40
2019-02-03T07:24:33.561Z,3.40
2019-02-03T07:27:03.906Z,3.50
2019-02-03T07:29:34.041Z,3.50
2019-02-03T07:32:04.268Z,3.40
2019-02-03T07:34:34.544Z,3.40
2019-02-03T07:37:04.866Z,3.40
2019-02-03T07:39:34.920Z,3.50
2019-02-03T07:42:05.447Z,3.40
2019-02-03T07:44:36.586Z,3.50
2019-02-03T07:47:06.820Z,3.50
2019-02-03T07:49:37.016Z,3.40
2019-02-03T07:52:07.420Z,3.40
2019-02-03T07:54:37.680Z,3.50
2019-02-03T07:57:08.849Z,3.60
2019-02-03T07:59:40.441Z,3.60
2019-02-03T08:02:10.466Z,3.60
2019-02-03T08:04:40.693Z,3.70
2019-02-03T08:07:11.240Z,3.80
2019-02-03T08:09:41.334Z,3.50
2019-02-03T08:12:11.727Z,3.70
2019-02-03T08:14:42.499Z,3.90
2019-02-03T08:17:13.451Z,4.10
2019-02-03T08:19:43.474Z,4.10
2019-02-03T08:22:14.899Z,4.20
2019-02-03T08:24:46.599Z,4.10
2019-02-03T08:27:16.712Z,4.10
2019-02-03T08:29:46.912Z,3.90
2019-02-03T08:32:17.501Z,3.70
2019-02-03T08:34:49.368Z,3.70
2019-02-03T08:37:19.652Z,3.60
2019-02-03T08:39:49.955Z,3.60
2019-02-03T08:42:20.310Z,3.70
2019-02-03T08:44:50.917Z,3.80
2019-02-03T08:47:21.832Z,3.80
2019-02-03T08:49:52.041Z,3.80
2019-02-03T08:52:23.395Z,3.80
2019-02-03T08:54:58.318Z,3.80
2019-02-03T08:57:26.531Z,3.50
2019-02-03T08:59:58.061Z,3.40
2019-02-03T09:02:28.706Z,3.30
2019-02-03T09:04:59.464Z,3.20
2019-02-03T09:07:29.986Z,3.20
2019-02-03T09:10:00.429Z,3.20
2019-02-03T09:12:31.290Z,3.20
2019-02-03T09:15:01.838Z,3.30
2019-02-03T09:17:32.571Z,3.40
2019-02-03T09:20:02.801Z,3.50
2019-02-03T09:22:33.215Z,3.50
2019-02-03T09:25:03.871Z,3.50
2019-02-03T09:27:34.705Z,3.50
2019-02-03T09:30:08.507Z,3.60
2019-02-03T09:32:39.471Z,3.70
2019-02-03T09:35:11.427Z,3.80
2019-02-03T09:37:42.621Z,3.70
2019-02-03T09:40:17.293Z,3.60
2019-02-03T09:42:47.862Z,3.60
2019-02-03T09:45:20.150Z,3.60
2019-02-03T09:47:51.250Z,3.60
2019-02-03T09:50:23.780Z,4.30
2019-02-03T09:52:55.576Z,6.50
2019-02-03T09:55:26.929Z,8.90
2019-02-03T09:57:59.912Z,11.10
2019-02-03T10:00:32.334Z,12.90
2019-02-03T10:03:04.137Z,14.40
2019-02-03T10:05:37.081Z,15.70
2019-02-03T10:08:07.849Z,16.80
2019-02-03T10:10:40.300Z,17.70
2019-02-03T10:13:10.832Z,18.50
2019-02-03T10:15:41.826Z,19.70
2019-02-03T10:18:12.976Z,20.90
2019-02-03T10:20:43.406Z,22.00
2019-02-03T10:23:36.295Z,23.10
2019-02-03T10:26:15.469Z,24.10
2019-02-03T10:28:52.837Z,24.80
2019-02-03T10:31:32.499Z,25.50
2019-02-03T10:34:03.424Z,26.00
2019-02-03T10:36:49.638Z,26.40
2019-02-03T10:39:33.051Z,26.80
2019-02-03T10:42:04.048Z,27.10
2019-02-03T10:44:36.380Z,27.30
2019-02-03T10:47:16.542Z,27.50
2019-02-03T10:50:03.627Z,27.60
2019-02-03T10:52:43.129Z,27.80
2019-02-03T10:55:15.171Z,27.80
2019-02-03T10:57:46.318Z,28.00
2019-02-03T11:00:41.338Z,28.10
2019-02-03T11:03:21.251Z,28.10
2019-02-03T11:05:59.103Z,27.90
2019-02-03T11:08:28.984Z,27.60
2019-02-03T11:11:00.620Z,27.40
2019-02-03T11:13:31.204Z,27.20
2019-02-03T11:16:07.142Z,27.00
2019-02-03T11:21:30.970Z,26.60
2019-02-03T11:24:12.195Z,26.40
2019-02-03T11:26:45.851Z,26.20
2019-02-03T11:29:37.758Z,26.00
2019-02-03T11:32:10.422Z,25.90
2019-02-03T11:34:42.510Z,25.70
2019-02-03T11:37:21.390Z,25.60
2019-02-03T11:39:53.461Z,25.40
2019-02-03T11:42:32.410Z,25.30
2019-02-03T11:45:04.974Z,25.20
2019-02-03T11:47:36.472Z,25.10
2019-02-03T11:50:09.947Z,25.00
2019-02-03T11:52:41.939Z,24.90
2019-02-03T11:56:00.585Z,24.80
2019-02-03T11:58:39.944Z,24.60
2019-02-03T12:01:20.789Z,24.40
2019-02-03T12:03:56.220Z,24.30
2019-02-03T12:06:29.278Z,24.20
2019-02-03T12:09:03.950Z,24.10
2019-02-03T12:11:38.904Z,24.00
2019-02-03T12:14:24.886Z,23.80
2019-02-03T12:17:51.061Z,23.80
2019-02-03T12:20:23.221Z,23.60
2019-02-03T12:23:09.742Z,23.40
2019-02-03T12:25:43.100Z,23.30
2019-02-03T12:28:15.223Z,23.10
2019-02-03T12:31:06.197Z,23.00
2019-02-03T12:33:47.489Z,23.00
2019-02-03T12:36:19.790Z,22.90
2019-02-03T12:38:52.218Z,22.90
2019-02-03T12:41:24.158Z,23.10
2019-02-03T12:44:03.260Z,23.50
2019-02-03T12:46:35.537Z,24.00
2019-02-03T12:49:07.699Z,24.50
2019-02-03T12:51:41.373Z,25.00
2019-02-03T12:54:31.418Z,25.50
2019-02-03T12:57:03.962Z,25.90
2019-02-03T12:59:42.514Z,26.20
2019-02-03T13:02:14.566Z,26.40
2019-02-03T13:05:47.238Z,26.60
2019-02-03T13:08:28.105Z,26.80
2019-02-03T13:11:00.837Z,26.90
2019-02-03T13:14:03.220Z,27.10
2019-02-03T13:16:37.150Z,27.10
2019-02-03T13:19:10.164Z,27.20
2019-02-03T13:21:42.741Z,27.30
2019-02-03T13:24:14.779Z,27.40
2019-02-03T13:26:47.723Z,27.50
2019-02-03T13:29:23.191Z,27.50
2019-02-03T13:31:55.259Z,27.50
2019-02-03T13:34:28.079Z,27.40
2019-02-03T13:37:08.189Z,27.20
2019-02-03T13:39:50.212Z,27.00
2019-02-03T13:42:22.905Z,26.80
2019-02-03T13:45:20.273Z,26.60
2019-02-03T13:47:42.591Z,26.50
2019-02-03T13:50:19.354Z,26.30
2019-02-03T13:52:52.030Z,26.10
2019-02-03T13:58:23.060Z,25.70
2019-02-03T14:00:59.179Z,25.40
2019-02-03T14:03:45.357Z,25.20
2019-02-03T14:06:18.085Z,25.00
2019-02-03T14:09:06.689Z,24.80
2019-02-03T14:11:58.060Z,24.70
2019-02-03T14:14:30.759Z,24.50
2019-02-03T14:17:02.560Z,24.30
2019-02-03T14:19:35.838Z,24.20
2019-02-03T14:22:27.071Z,24.00
2019-02-03T14:24:59.404Z,23.90
2019-02-03T14:27:48.441Z,23.80
2019-02-03T14:30:44.905Z,23.70
2019-02-03T14:33:30.819Z,23.60
2019-02-03T14:36:02.814Z,23.50
2019-02-03T14:38:37.027Z,23.40
2019-02-03T14:41:08.781Z,23.30
2019-02-03T14:44:34.641Z,23.20
2019-02-03T14:47:15.421Z,23.10
2019-02-03T14:49:47.419Z,23.00
2019-02-03T14:52:32.477Z,22.80
2019-02-03T14:55:13.571Z,22.80
2019-02-03T14:58:43.051Z,22.70
2019-02-03T15:01:02.434Z,22.60
2019-02-03T15:03:34.837Z,22.60
2019-02-03T15:06:07.348Z,22.90
2019-02-03T15:08:39.669Z,23.30
2019-02-03T15:11:12.676Z,23.80
2019-02-03T15:13:46.883Z,24.40
2019-02-03T15:16:20.344Z,25.00
2019-02-03T15:19:09.303Z,25.50
2019-02-03T15:21:56.931Z,25.90
2019-02-03T15:24:34.902Z,26.20
2019-02-03T15:27:38.131Z,26.40
2019-02-03T15:30:36.714Z,26.60
2019-02-03T15:33:18.374Z,26.70
2019-02-03T15:35:52.678Z,26.90
2019-02-03T15:38:29.596Z,27.10
2019-02-03T15:41:06.778Z,27.30
2019-02-03T15:43:42.188Z,27.40
2019-02-03T15:46:32.047Z,27.40
2019-02-03T15:49:10.482Z,27.50
2019-02-03T15:51:51.285Z,27.40
2019-02-03T15:54:29.037Z,27.20
2019-02-03T15:57:05.527Z,27.10
2019-02-03T15:59:44.512Z,26.90
2019-02-03T16:02:24.140Z,26.80
2019-02-03T16:05:03.549Z,26.50
2019-02-03T16:07:40.211Z,26.30
2019-02-03T16:10:17.498Z,26.10
2019-02-03T16:12:54.548Z,25.90
2019-02-03T16:15:28.478Z,25.80
2019-02-03T16:18:03.318Z,25.60
2019-02-03T16:20:41.664Z,25.40
2019-02-03T16:23:19.184Z,25.20
2019-02-03T16:25:58.109Z,25.10
2019-02-03T16:28:32.371Z,25.00
2019-02-03T16:31:05.618Z,24.80
2019-02-03T16:33:41.968Z,24.70
2019-02-03T16:36:16.107Z,24.60
2019-02-03T16:38:49.772Z,24.50
2019-02-03T16:41:28.642Z,24.40
2019-02-03T16:44:06.352Z,24.30
2019-02-03T16:46:41.979Z,24.20
2019-02-03T16:49:17.128Z,24.10
2019-02-03T16:51:53.916Z,23.90
2019-02-03T16:54:30.604Z,23.80
2019-02-03T16:57:06.581Z,23.70
2019-02-03T16:59:45.072Z,23.50
2019-02-03T17:02:19.006Z,23.40
2019-02-03T17:04:51.300Z,23.30
2019-02-03T17:07:23.346Z,23.20
2019-02-03T17:09:57.271Z,23.10
2019-02-03T17:12:28.988Z,23.00
2019-02-03T17:15:00.921Z,22.90
2019-02-03T17:17:33.565Z,22.80
2019-02-03T17:20:07.467Z,22.70
2019-02-03T17:22:39.403Z,22.60
2019-02-03T17:25:12.547Z,22.50
2019-02-03T17:27:45.242Z,22.70
2019-02-03T17:30:17.074Z,23.30
2019-02-03T17:32:48.991Z,23.80
2019-02-03T17:35:21.489Z,24.30
2019-02-03T17:37:53.502Z,24.90
2019-02-03T17:40:25.298Z,25.30
2019-02-03T17:42:56.097Z,25.70
2019-02-03T17:45:28.842Z,26.00
2019-02-03T17:48:01.103Z,26.20
2019-02-03T17:50:33.099Z,26.40
2019-02-03T17:53:05.620Z,26.50
2019-02-03T17:55:37.052Z,26.70
2019-02-03T17:58:09.288Z,26.80
2019-02-03T18:00:51.508Z,26.80
2019-02-03T18:03:23.019Z,26.80
2019-02-03T18:05:54.626Z,26.90
2019-02-03T18:08:26.303Z,27.00
2019-02-03T18:10:58.258Z,27.00
2019-02-03T18:13:29.985Z,26.90
2019-02-03T18:16:04.171Z,26.90
2019-02-03T18:18:36.995Z,26.80
2019-02-03T18:21:09.091Z,26.70
2019-02-03T18:23:45.233Z,26.50
2019-02-03T18:26:17.102Z,26.40
2019-02-03T18:28:49.260Z,26.20
2019-02-03T18:31:21.899Z,26.10
2019-02-03T18:33:55.180Z,25.90
2019-02-03T18:36:26.639Z,25.70
2019-02-03T18:38:58.221Z,25.50
2019-02-03T18:41:31.480Z,25.30
2019-02-03T18:44:03.587Z,25.00
2019-02-03T18:46:36.528Z,24.80
2019-02-03T18:49:08.244Z,24.60
2019-02-03T18:51:40.511Z,24.50
2019-02-03T18:54:12.015Z,24.40
2019-02-03T18:56:44.506Z,24.40
2019-02-03T18:59:16.622Z,24.30
2019-02-03T19:01:47.899Z,24.20
2019-02-03T19:04:20.288Z,24.10
2019-02-03T19:06:52.219Z,24.00
2019-02-03T19:09:30.460Z,23.90
2019-02-03T19:12:02.830Z,23.80
2019-02-03T19:14:46.522Z,23.70
2019-02-03T19:17:08.299Z,23.50
2019-02-03T19:19:42.580Z,23.40
2019-02-03T19:22:14.930Z,23.30
2019-02-03T19:24:46.940Z,23.10
2019-02-03T19:27:18.427Z,23.00
2019-02-03T19:29:50.229Z,22.90
2019-02-03T19:32:22.264Z,22.80
2019-02-03T19:34:54.542Z,22.70
2019-02-03T19:37:27.031Z,22.60
2019-02-03T19:39:59.283Z,22.50
2019-02-03T19:42:32.501Z,22.50
2019-02-03T19:45:05.341Z,22.60
2019-02-03T19:47:37.439Z,23.00
2019-02-03T19:50:12.062Z,23.50
2019-02-03T19:52:44.820Z,24.00
2019-02-03T19:55:17.343Z,24.60
2019-02-03T19:57:49.911Z,25.00
2019-02-03T20:00:35.250Z,25.30
2019-02-03T20:03:09.325Z,25.70
2019-02-03T20:05:42.963Z,25.90
2019-02-03T20:08:19.660Z,26.10
2019-02-03T20:11:11.098Z,26.10
2019-02-03T20:13:44.213Z,26.30
2019-02-03T20:16:16.058Z,26.40
2019-02-03T20:18:49.145Z,26.50
2019-02-03T20:21:21.521Z,26.50
2019-02-03T20:23:53.458Z,26.40
2019-02-03T20:26:26.437Z,26.50
2019-02-03T20:28:58.582Z,26.60
2019-02-03T20:31:31.615Z,26.60
2019-02-03T20:34:03.530Z,26.50
2019-02-03T20:36:36.010Z,26.40
2019-02-03T20:39:09.951Z,26.30
2019-02-03T20:41:43.939Z,26.20
2019-02-03T20:44:17.413Z,26.10
2019-02-03T20:46:49.308Z,25.90
2019-02-03T20:49:21.621Z,25.80
2019-02-03T20:51:54.425Z,25.70
2019-02-03T20:54:27.339Z,25.50
2019-02-03T20:57:00.612Z,25.40
2019-02-03T20:59:33.741Z,25.20
2019-02-03T21:02:06.607Z,25.00
2019-02-03T21:04:40.041Z,24.80
2019-02-03T21:07:13.559Z,24.60
2019-02-03T21:09:46.704Z,24.40
2019-02-03T21:12:19.805Z,24.30
2019-02-03T21:14:51.696Z,24.20
2019-02-03T21:17:24.243Z,24.10
2019-02-03T21:19:55.941Z,24.00
2019-02-03T21:22:28.423Z,23.80
2019-02-03T21:25:01.725Z,23.70
2019-02-03T21:27:33.830Z,23.60
2019-02-03T21:30:08.749Z,23.50
2019-02-03T21:32:40.870Z,23.40
2019-02-03T21:35:13.931Z,23.30
2019-02-03T21:37:46.249Z,23.20
2019-02-03T21:40:21.349Z,23.10
2019-02-03T21:42:53.289Z,23.00
2019-02-03T21:45:25.919Z,22.90
2019-02-03T21:47:58.161Z,22.90
2019-02-03T21:50:30.498Z,22.80
2019-02-03T21:53:02.037Z,22.70
2019-02-03T21:55:33.170Z,22.60
2019-02-03T21:58:04.670Z,22.60
2019-02-03T22:00:36.421Z,22.50
2019-02-03T22:03:08.725Z,22.40
2019-02-03T22:05:40.388Z,22.40
2019-02-03T22:08:12.182Z,22.30
2019-02-03T22:10:43.524Z,22.50
2019-02-03T22:13:15.740Z,23.00
2019-02-03T22:15:55.587Z,23.50
2019-02-03T22:18:19.335Z,24.10
2019-02-03T22:20:50.094Z,24.70
2019-02-03T22:23:21.576Z,25.20
2019-02-03T22:25:54.403Z,25.70
2019-02-03T22:28:25.327Z,26.10
2019-02-03T22:30:56.945Z,26.30
2019-02-03T22:33:29.503Z,26.50
2019-02-03T22:36:01.097Z,26.70
2019-02-03T22:38:32.037Z,26.90
2019-02-03T22:41:03.539Z,27.10
2019-02-03T22:43:34.540Z,27.20
2019-02-03T22:46:07.413Z,27.30
2019-02-03T22:48:39.306Z,27.40
2019-02-03T22:51:10.507Z,27.50
2019-02-03T22:53:41.831Z,27.50
2019-02-03T22:56:13.751Z,27.50
2019-02-03T22:58:45.536Z,27.40
2019-02-03T23:01:21.427Z,27.30
2019-02-03T23:04:01.705Z,27.20
2019-02-03T23:06:33.334Z,27.10
2019-02-03T23:09:17.860Z,26.80
2019-02-03T23:11:48.742Z,26.70
2019-02-03T23:14:21.140Z,26.50
2019-02-03T23:16:51.946Z,26.30
2019-02-03T23:19:23.348Z,26.10
2019-02-03T23:21:55.070Z,25.90
2019-02-03T23:24:26.346Z,25.70
2019-02-03T23:26:57.163Z,25.50
2019-02-03T23:29:28.333Z,25.30
2019-02-03T23:31:59.878Z,25.10
2019-02-03T23:34:30.789Z,24.90
2019-02-03T23:37:02.762Z,24.70
2019-02-03T23:39:33.844Z,24.50
2019-02-03T23:42:05.605Z,24.40
2019-02-03T23:44:36.992Z,24.30
2019-02-03T23:47:07.769Z,24.10
2019-02-03T23:49:38.672Z,23.90
2019-02-03T23:52:09.491Z,23.80
2019-02-03T23:54:40.984Z,23.60
2019-02-03T23:57:12.060Z,23.50
2019-02-03T23:59:43.547Z,23.30
